sensor_id;sensor_type;location;lat;lon;timestamp;pressure;altitude;pressure_sealevel;temperature;humidity
48606;BME280;8482;54.396;18.590;2022-08-05T00:01:50;101380.06;;;25.42;48.08
48606;BME280;8482;54.396;18.590;2022-08-05T00:04:16;101374.81;;;25.40;47.98
48606;BME280;8482;54.396;18.590;2022-08-05T00:06:43;101368.97;;;25.37;47.82
48606;BME280;8482;54.396;18.590;2022-08-05T00:09:09;101376.88;;;25.38;47.93
48606;BME280;8482;54.396;18.590;2022-08-05T00:11:35;101371.69;;;25.37;47.86
48606;BME280;8482;54.396;18.590;2022-08-05T00:14:02;101370.81;;;25.36;48.05
48606;BME280;8482;54.396;18.590;2022-08-05T00:16:28;101369.16;;;25.35;47.76
48606;BME280;8482;54.396;18.590;2022-08-05T00:18:54;101360.59;;;25.32;47.45
48606;BME280;8482;54.396;18.590;2022-08-05T00:21:19;101359.53;;;25.33;47.61
48606;BME280;8482;54.396;18.590;2022-08-05T00:23:47;101362.25;;;25.33;47.43
48606;BME280;8482;54.396;18.590;2022-08-05T00:26:14;101361.63;;;25.31;47.54
48606;BME280;8482;54.396;18.590;2022-08-05T00:28:40;101364.56;;;25.29;47.38
48606;BME280;8482;54.396;18.590;2022-08-05T00:31:06;101353.69;;;25.29;47.28
48606;BME280;8482;54.396;18.590;2022-08-05T00:33:33;101347.63;;;25.27;47.50
48606;BME280;8482;54.396;18.590;2022-08-05T00:35:59;101354.31;;;25.24;47.58
48606;BME280;8482;54.396;18.590;2022-08-05T00:38:25;101356.16;;;25.24;47.55
48606;BME280;8482;54.396;18.590;2022-08-05T00:40:55;101361.41;;;25.25;47.47
48606;BME280;8482;54.396;18.590;2022-08-05T00:43:22;101359.91;;;25.23;47.70
48606;BME280;8482;54.396;18.590;2022-08-05T00:45:48;101364.72;;;25.21;47.68
48606;BME280;8482;54.396;18.590;2022-08-05T00:48:18;101361.41;;;25.19;47.90
48606;BME280;8482;54.396;18.590;2022-08-05T00:50:48;101350.50;;;25.12;48.31
48606;BME280;8482;54.396;18.590;2022-08-05T00:53:17;101362.19;;;25.13;48.55
48606;BME280;8482;54.396;18.590;2022-08-05T00:55:43;101356.56;;;25.07;48.56
48606;BME280;8482;54.396;18.590;2022-08-05T00:58:11;101360.31;;;25.06;48.66
48606;BME280;8482;54.396;18.590;2022-08-05T01:00:39;101356.53;;;25.01;48.85
48606;BME280;8482;54.396;18.590;2022-08-05T01:03:05;101364.44;;;24.96;49.07
48606;BME280;8482;54.396;18.590;2022-08-05T01:05:31;101349.59;;;24.91;49.19
48606;BME280;8482;54.396;18.590;2022-08-05T01:07:58;101359.38;;;24.86;49.58
48606;BME280;8482;54.396;18.590;2022-08-05T01:10:39;101364.16;;;24.84;49.67
48606;BME280;8482;54.396;18.590;2022-08-05T01:13:16;101360.59;;;24.76;50.01
48606;BME280;8482;54.396;18.590;2022-08-05T01:15:55;101355.13;;;24.70;50.26
48606;BME280;8482;54.396;18.590;2022-08-05T01:18:30;101346.94;;;24.63;50.36
48606;BME280;8482;54.396;18.590;2022-08-05T01:21:06;101356.31;;;24.60;50.22
48606;BME280;8482;54.396;18.590;2022-08-05T01:27:12;101356.03;;;24.48;51.04
48606;BME280;8482;54.396;18.590;2022-08-05T01:29:49;101346.59;;;24.44;51.15
48606;BME280;8482;54.396;18.590;2022-08-05T01:32:22;101350.75;;;24.40;50.74
48606;BME280;8482;54.396;18.590;2022-08-05T01:34:56;101340.91;;;24.32;51.19
48606;BME280;8482;54.396;18.590;2022-08-05T01:37:49;101350.25;;;24.30;51.28
48606;BME280;8482;54.396;18.590;2022-08-05T01:40:20;101344.63;;;24.25;51.41
48606;BME280;8482;54.396;18.590;2022-08-05T01:42:50;101336.88;;;24.22;51.58
48606;BME280;8482;54.396;18.590;2022-08-05T01:45:19;101341.84;;;24.18;51.67
48606;BME280;8482;54.396;18.590;2022-08-05T01:47:48;101343.06;;;24.15;51.67
48606;BME280;8482;54.396;18.590;2022-08-05T01:50:27;101345.34;;;24.12;51.67
48606;BME280;8482;54.396;18.590;2022-08-05T01:52:58;101342.41;;;24.07;51.84
48606;BME280;8482;54.396;18.590;2022-08-05T01:55:28;101343.22;;;24.07;51.94
48606;BME280;8482;54.396;18.590;2022-08-05T01:57:57;101330.28;;;24.02;51.83
48606;BME280;8482;54.396;18.590;2022-08-05T02:00:25;101337.38;;;24.03;52.01
48606;BME280;8482;54.396;18.590;2022-08-05T02:02:57;101336.72;;;24.01;52.10
48606;BME280;8482;54.396;18.590;2022-08-05T02:05:30;101344.19;;;23.99;52.05
48606;BME280;8482;54.396;18.590;2022-08-05T02:07:58;101334.59;;;23.97;52.01
48606;BME280;8482;54.396;18.590;2022-08-05T02:10:35;101332.47;;;23.92;52.30
48606;BME280;8482;54.396;18.590;2022-08-05T02:13:40;101326.56;;;23.88;52.24
48606;BME280;8482;54.396;18.590;2022-08-05T02:16:48;101334.06;;;23.86;52.43
48606;BME280;8482;54.396;18.590;2022-08-05T02:22:16;101337.56;;;23.80;52.48
48606;BME280;8482;54.396;18.590;2022-08-05T02:24:50;101332.50;;;23.77;52.78
48606;BME280;8482;54.396;18.590;2022-08-05T02:27:20;101323.94;;;23.73;52.78
48606;BME280;8482;54.396;18.590;2022-08-05T02:29:49;101321.84;;;23.69;52.91
48606;BME280;8482;54.396;18.590;2022-08-05T02:32:20;101331.84;;;23.68;52.95
48606;BME280;8482;54.396;18.590;2022-08-05T02:34:48;101333.03;;;23.66;53.00
48606;BME280;8482;54.396;18.590;2022-08-05T02:37:16;101331.56;;;23.63;53.13
48606;BME280;8482;54.396;18.590;2022-08-05T02:39:43;101324.69;;;23.61;53.11
48606;BME280;8482;54.396;18.590;2022-08-05T02:42:13;101327.78;;;23.57;53.27
48606;BME280;8482;54.396;18.590;2022-08-05T02:44:41;101326.31;;;23.55;53.35
48606;BME280;8482;54.396;18.590;2022-08-05T02:47:09;101327.50;;;23.52;53.24
48606;BME280;8482;54.396;18.590;2022-08-05T02:49:39;101317.91;;;23.50;53.32
48606;BME280;8482;54.396;18.590;2022-08-05T02:52:16;101320.81;;;23.48;53.27
48606;BME280;8482;54.396;18.590;2022-08-05T02:54:43;101319.31;;;23.46;53.50
48606;BME280;8482;54.396;18.590;2022-08-05T02:57:13;101317.00;;;23.42;53.53
48606;BME280;8482;54.396;18.590;2022-08-05T02:59:46;101324.50;;;23.40;53.52
48606;BME280;8482;54.396;18.590;2022-08-05T03:02:17;101318.44;;;23.38;53.79
48606;BME280;8482;54.396;18.590;2022-08-05T03:04:45;101320.69;;;23.35;53.86
48606;BME280;8482;54.396;18.590;2022-08-05T03:07:13;101315.66;;;23.32;53.87
48606;BME280;8482;54.396;18.590;2022-08-05T03:09:42;101317.50;;;23.31;53.96
48606;BME280;8482;54.396;18.590;2022-08-05T03:12:09;101312.50;;;23.28;54.03
48606;BME280;8482;54.396;18.590;2022-08-05T03:14:35;101306.81;;;23.23;54.11
48606;BME280;8482;54.396;18.590;2022-08-05T03:17:01;101306.81;;;23.23;54.06
48606;BME280;8482;54.396;18.590;2022-08-05T03:19:26;101300.25;;;23.17;53.90
48606;BME280;8482;54.396;18.590;2022-08-05T03:21:52;101306.72;;;23.16;53.93
48606;BME280;8482;54.396;18.590;2022-08-05T03:24:19;101310.06;;;23.18;53.88
48606;BME280;8482;54.396;18.590;2022-08-05T03:26:45;101320.88;;;23.18;53.80
48606;BME280;8482;54.396;18.590;2022-08-05T03:29:11;101308.59;;;23.16;53.79
48606;BME280;8482;54.396;18.590;2022-08-05T03:31:37;101304.00;;;23.16;53.75
48606;BME280;8482;54.396;18.590;2022-08-05T03:34:04;101310.63;;;23.14;53.89
48606;BME280;8482;54.396;18.590;2022-08-05T03:36:30;101312.50;;;23.13;53.68
48606;BME280;8482;54.396;18.590;2022-08-05T03:38:57;101311.84;;;23.11;53.64
48606;BME280;8482;54.396;18.590;2022-08-05T03:41:23;101312.88;;;23.10;53.89
48606;BME280;8482;54.396;18.590;2022-08-05T03:43:48;101303.28;;;23.07;53.80
48606;BME280;8482;54.396;18.590;2022-08-05T03:46:14;101300.56;;;23.07;54.00
48606;BME280;8482;54.396;18.590;2022-08-05T03:48:40;101310.56;;;23.07;53.93
48606;BME280;8482;54.396;18.590;2022-08-05T03:51:19;101312.25;;;23.08;53.78
48606;BME280;8482;54.396;18.590;2022-08-05T03:53:54;101314.94;;;23.08;53.51
48606;BME280;8482;54.396;18.590;2022-08-05T03:56:41;101308.22;;;23.04;53.61
48606;BME280;8482;54.396;18.590;2022-08-05T03:59:15;101318.69;;;23.07;53.57
48606;BME280;8482;54.396;18.590;2022-08-05T04:01:45;101307.84;;;23.07;53.53
48606;BME280;8482;54.396;18.590;2022-08-05T04:04:15;101303.84;;;23.03;53.49
48606;BME280;8482;54.396;18.590;2022-08-05T04:06:42;101316.16;;;23.05;53.44
48606;BME280;8482;54.396;18.590;2022-08-05T04:09:09;101310.94;;;23.04;53.60
48606;BME280;8482;54.396;18.590;2022-08-05T04:11:36;101303.19;;;23.01;53.39
48606;BME280;8482;54.396;18.590;2022-08-05T04:14:03;101304.88;;;23.02;53.33
48606;BME280;8482;54.396;18.590;2022-08-05T04:16:31;101309.91;;;23.05;53.49
48606;BME280;8482;54.396;18.590;2022-08-05T04:18:57;101306.34;;;23.04;53.44
48606;BME280;8482;54.396;18.590;2022-08-05T04:21:24;101304.50;;;23.05;53.58
48606;BME280;8482;54.396;18.590;2022-08-05T04:23:50;101307.22;;;23.05;53.48
48606;BME280;8482;54.396;18.590;2022-08-05T04:26:15;101312.63;;;23.05;53.25
48606;BME280;8482;54.396;18.590;2022-08-05T04:28:41;101300.78;;;23.06;53.59
48606;BME280;8482;54.396;18.590;2022-08-05T04:31:07;101305.16;;;23.07;53.45
48606;BME280;8482;54.396;18.590;2022-08-05T04:33:33;101304.13;;;23.08;53.25
48606;BME280;8482;54.396;18.590;2022-08-05T04:35:58;101303.28;;;23.07;53.25
48606;BME280;8482;54.396;18.590;2022-08-05T04:38:24;101307.00;;;23.06;53.22
48606;BME280;8482;54.396;18.590;2022-08-05T04:40:50;101313.06;;;23.08;53.15
48606;BME280;8482;54.396;18.590;2022-08-05T04:43:16;101314.09;;;23.07;53.19
48606;BME280;8482;54.396;18.590;2022-08-05T04:45:42;101315.78;;;23.08;53.20
48606;BME280;8482;54.396;18.590;2022-08-05T04:48:13;101311.22;;;23.09;53.21
48606;BME280;8482;54.396;18.590;2022-08-05T04:50:42;101312.88;;;23.10;53.05
48606;BME280;8482;54.396;18.590;2022-08-05T04:53:09;101305.81;;;23.09;53.06
48606;BME280;8482;54.396;18.590;2022-08-05T04:55:37;101308.97;;;23.13;53.03
48606;BME280;8482;54.396;18.590;2022-08-05T04:58:05;101303.34;;;23.14;52.96
48606;BME280;8482;54.396;18.590;2022-08-05T05:00:36;101302.13;;;23.17;53.00
48606;BME280;8482;54.396;18.590;2022-08-05T05:03:04;101302.97;;;23.17;52.99
48606;BME280;8482;54.396;18.590;2022-08-05T05:05:30;101304.66;;;23.18;52.79
48606;BME280;8482;54.396;18.590;2022-08-05T05:08:07;101299.72;;;23.22;52.56
48606;BME280;8482;54.396;18.590;2022-08-05T05:10:43;101301.41;;;23.23;52.50
48606;BME280;8482;54.396;18.590;2022-08-05T05:13:12;101311.00;;;23.25;52.34
48606;BME280;8482;54.396;18.590;2022-08-05T05:15:39;101311.63;;;23.27;52.28
48606;BME280;8482;54.396;18.590;2022-08-05T05:18:06;101313.13;;;23.30;52.30
48606;BME280;8482;54.396;18.590;2022-08-05T05:20:32;101315.44;;;23.33;52.58
48606;BME280;8482;54.396;18.590;2022-08-05T05:23:00;101306.28;;;23.34;52.07
48606;BME280;8482;54.396;18.590;2022-08-05T05:25:30;101305.91;;;23.37;51.76
48606;BME280;8482;54.396;18.590;2022-08-05T05:27:56;101308.25;;;23.40;51.65
48606;BME280;8482;54.396;18.590;2022-08-05T05:30:23;101307.84;;;23.44;51.61
48606;BME280;8482;54.396;18.590;2022-08-05T05:32:49;101313.72;;;23.47;51.65
48606;BME280;8482;54.396;18.590;2022-08-05T05:35:15;101305.59;;;23.47;51.36
48606;BME280;8482;54.396;18.590;2022-08-05T05:37:52;101304.38;;;23.50;51.08
48606;BME280;8482;54.396;18.590;2022-08-05T05:40:20;101306.88;;;23.51;51.00
48606;BME280;8482;54.396;18.590;2022-08-05T05:42:47;101302.75;;;23.55;50.72
48606;BME280;8482;54.396;18.590;2022-08-05T05:45:14;101311.31;;;23.59;50.94
48606;BME280;8482;54.396;18.590;2022-08-05T05:47:40;101300.09;;;23.62;50.97
48606;BME280;8482;54.396;18.590;2022-08-05T05:50:08;101298.88;;;23.65;50.99
48606;BME280;8482;54.396;18.590;2022-08-05T05:52:35;101303.69;;;23.69;50.94
48606;BME280;8482;54.396;18.590;2022-08-05T05:55:03;101301.84;;;23.70;50.89
48606;BME280;8482;54.396;18.590;2022-08-05T05:57:29;101301.03;;;23.76;50.90
48606;BME280;8482;54.396;18.590;2022-08-05T05:59:55;101300.88;;;23.78;51.03
48606;BME280;8482;54.396;18.590;2022-08-05T06:02:21;101303.38;;;23.79;50.71
48606;BME280;8482;54.396;18.590;2022-08-05T06:04:47;101312.78;;;23.83;50.73
48606;BME280;8482;54.396;18.590;2022-08-05T06:07:12;101309.50;;;23.88;50.70
48606;BME280;8482;54.396;18.590;2022-08-05T06:09:39;101304.06;;;23.88;50.64
48606;BME280;8482;54.396;18.590;2022-08-05T06:12:05;101310.38;;;23.95;50.58
48606;BME280;8482;54.396;18.590;2022-08-05T06:14:32;101305.84;;;23.96;50.53
48606;BME280;8482;54.396;18.590;2022-08-05T06:16:58;101315.88;;;24.02;50.49
48606;BME280;8482;54.396;18.590;2022-08-05T06:19:25;101310.06;;;24.05;50.48
48606;BME280;8482;54.396;18.590;2022-08-05T06:21:51;101309.47;;;24.10;50.70
48606;BME280;8482;54.396;18.590;2022-08-05T06:24:17;101311.59;;;24.14;50.76
48606;BME280;8482;54.396;18.590;2022-08-05T06:26:44;101309.13;;;24.20;50.66
48606;BME280;8482;54.396;18.590;2022-08-05T06:29:10;101304.97;;;24.24;50.55
48606;BME280;8482;54.396;18.590;2022-08-05T06:31:36;101303.56;;;24.28;50.43
48606;BME280;8482;54.396;18.590;2022-08-05T06:34:04;101298.34;;;24.33;50.44
48606;BME280;8482;54.396;18.590;2022-08-05T06:36:30;101301.72;;;24.35;50.17
48606;BME280;8482;54.396;18.590;2022-08-05T06:38:56;101303.81;;;24.40;50.11
48606;BME280;8482;54.396;18.590;2022-08-05T06:41:23;101286.13;;;24.44;49.86
48606;BME280;8482;54.396;18.590;2022-08-05T06:43:49;101299.72;;;24.51;49.61
48606;BME280;8482;54.396;18.590;2022-08-05T06:46:15;101281.16;;;24.54;49.61
48606;BME280;8482;54.396;18.590;2022-08-05T06:48:41;101284.94;;;24.60;49.63
48606;BME280;8482;54.396;18.590;2022-08-05T06:51:07;101286.22;;;24.64;49.10
48606;BME280;8482;54.396;18.590;2022-08-05T06:53:32;101286.47;;;24.69;48.91
48606;BME280;8482;54.396;18.590;2022-08-05T06:56:01;101285.88;;;24.74;48.83
48606;BME280;8482;54.396;18.590;2022-08-05T06:58:30;101269.78;;;24.72;49.03
48606;BME280;8482;54.396;18.590;2022-08-05T07:01:15;101277.16;;;24.85;49.16
48606;BME280;8482;54.396;18.590;2022-08-05T07:03:41;101283.00;;;24.89;49.19
48606;BME280;8482;54.396;18.590;2022-08-05T07:06:07;101275.09;;;24.94;49.29
48606;BME280;8482;54.396;18.590;2022-08-05T07:08:32;101280.53;;;25.01;49.05
48606;BME280;8482;54.396;18.590;2022-08-05T07:10:58;101277.22;;;25.05;49.20
48606;BME280;8482;54.396;18.590;2022-08-05T07:13:24;101276.38;;;25.12;49.04
48606;BME280;8482;54.396;18.590;2022-08-05T07:16:08;101266.78;;;25.16;48.93
48606;BME280;8482;54.396;18.590;2022-08-05T07:18:52;101270.56;;;25.21;49.32
48606;BME280;8482;54.396;18.590;2022-08-05T07:21:18;101269.72;;;25.28;49.30
48606;BME280;8482;54.396;18.590;2022-08-05T07:23:44;101258.44;;;25.31;49.19
48606;BME280;8482;54.396;18.590;2022-08-05T07:26:10;101266.59;;;25.37;48.73
48606;BME280;8482;54.396;18.590;2022-08-05T07:28:35;101266.84;;;25.43;48.66
48606;BME280;8482;54.396;18.590;2022-08-05T07:31:01;101272.47;;;25.48;48.83
48606;BME280;8482;54.396;18.590;2022-08-05T07:33:27;101256.81;;;25.50;48.29
48606;BME280;8482;54.396;18.590;2022-08-05T07:35:53;101251.38;;;25.57;48.00
48606;BME280;8482;54.396;18.590;2022-08-05T07:38:19;101257.25;;;25.60;47.68
48606;BME280;8482;54.396;18.590;2022-08-05T07:40:45;101262.06;;;25.65;47.48
48606;BME280;8482;54.396;18.590;2022-08-05T07:43:11;101256.81;;;25.70;47.15
48606;BME280;8482;54.396;18.590;2022-08-05T07:45:41;101244.72;;;25.73;46.70
48606;BME280;8482;54.396;18.590;2022-08-05T07:48:08;101258.28;;;25.79;46.40
48606;BME280;8482;54.396;18.590;2022-08-05T07:50:34;101253.03;;;25.84;46.05
48606;BME280;8482;54.396;18.590;2022-08-05T07:53:00;101252.84;;;25.93;45.91
48606;BME280;8482;54.396;18.590;2022-08-05T07:55:25;101250.09;;;25.99;46.16
48606;BME280;8482;54.396;18.590;2022-08-05T07:57:51;101251.97;;;26.06;46.01
48606;BME280;8482;54.396;18.590;2022-08-05T08:00:17;101247.97;;;26.08;45.68
48606;BME280;8482;54.396;18.590;2022-08-05T08:02:43;101255.94;;;26.16;45.45
48606;BME280;8482;54.396;18.590;2022-08-05T08:05:09;101254.25;;;26.22;45.41
48606;BME280;8482;54.396;18.590;2022-08-05T08:07:36;101262.00;;;26.25;44.74
48606;BME280;8482;54.396;18.590;2022-08-05T08:10:02;101253.59;;;26.34;44.10
48606;BME280;8482;54.396;18.590;2022-08-05T08:12:28;101263.63;;;26.40;43.69
48606;BME280;8482;54.396;18.590;2022-08-05T08:14:55;101250.19;;;26.45;43.04
48606;BME280;8482;54.396;18.590;2022-08-05T08:17:21;101246.41;;;26.53;42.55
48606;BME280;8482;54.396;18.590;2022-08-05T08:19:47;101240.31;;;26.57;42.91
48606;BME280;8482;54.396;18.590;2022-08-05T08:22:13;101248.63;;;26.69;42.95
48606;BME280;8482;54.396;18.590;2022-08-05T08:24:38;101240.63;;;26.74;42.40
48606;BME280;8482;54.396;18.590;2022-08-05T08:27:05;101234.38;;;26.81;42.24
48606;BME280;8482;54.396;18.590;2022-08-05T08:29:31;101246.88;;;26.88;41.70
48606;BME280;8482;54.396;18.590;2022-08-05T08:31:57;101237.63;;;26.96;41.57
48606;BME280;8482;54.396;18.590;2022-08-05T08:34:25;101235.50;;;27.05;41.44
48606;BME280;8482;54.396;18.590;2022-08-05T08:36:52;101229.38;;;27.10;40.90
48606;BME280;8482;54.396;18.590;2022-08-05T08:39:18;101226.59;;;27.16;40.98
48606;BME280;8482;54.396;18.590;2022-08-05T08:41:48;101233.00;;;27.29;40.96
48606;BME280;8482;54.396;18.590;2022-08-05T08:44:18;101240.47;;;27.40;40.46
48606;BME280;8482;54.396;18.590;2022-08-05T08:46:46;101232.25;;;27.47;40.64
48606;BME280;8482;54.396;18.590;2022-08-05T08:49:18;101238.28;;;27.56;40.36
48606;BME280;8482;54.396;18.590;2022-08-05T08:52:07;101227.94;;;27.64;40.22
48606;BME280;8482;54.396;18.590;2022-08-05T08:54:35;101233.91;;;27.73;39.42
48606;BME280;8482;54.396;18.590;2022-08-05T08:57:04;101220.19;;;27.80;39.21
48606;BME280;8482;54.396;18.590;2022-08-05T08:59:30;101220.75;;;27.89;39.22
48606;BME280;8482;54.396;18.590;2022-08-05T09:01:56;101228.66;;;27.97;38.99
48606;BME280;8482;54.396;18.590;2022-08-05T09:04:23;101209.09;;;28.00;38.60
48606;BME280;8482;54.396;18.590;2022-08-05T09:06:49;101222.88;;;28.05;38.24
48606;BME280;8482;54.396;18.590;2022-08-05T09:09:15;101232.50;;;28.08;37.95
48606;BME280;8482;54.396;18.590;2022-08-05T09:11:41;101222.03;;;28.11;37.53
48606;BME280;8482;54.396;18.590;2022-08-05T09:14:07;101225.94;;;28.16;37.70
48606;BME280;8482;54.396;18.590;2022-08-05T09:16:33;101213.53;;;28.20;37.36
48606;BME280;8482;54.396;18.590;2022-08-05T09:18:58;101210.72;;;28.26;37.13
48606;BME280;8482;54.396;18.590;2022-08-05T09:21:24;101221.56;;;28.33;36.83
48606;BME280;8482;54.396;18.590;2022-08-05T09:24:07;101220.16;;;28.42;36.56
48606;BME280;8482;54.396;18.590;2022-08-05T09:26:35;101218.66;;;28.47;36.40
48606;BME280;8482;54.396;18.590;2022-08-05T09:29:06;101203.00;;;28.54;36.01
48606;BME280;8482;54.396;18.590;2022-08-05T09:31:34;101203.16;;;28.59;35.96
48606;BME280;8482;54.396;18.590;2022-08-05T09:34:06;101195.50;;;28.68;35.97
48606;BME280;8482;54.396;18.590;2022-08-05T09:36:48;101185.09;;;28.77;35.62
48606;BME280;8482;54.396;18.590;2022-08-05T09:39:18;101192.72;;;28.86;35.77
48606;BME280;8482;54.396;18.590;2022-08-05T09:42:03;101196.91;;;29.01;35.48
48606;BME280;8482;54.396;18.590;2022-08-05T09:44:55;101181.97;;;29.15;35.16
48606;BME280;8482;54.396;18.590;2022-08-05T09:47:26;101188.53;;;29.26;34.91
48606;BME280;8482;54.396;18.590;2022-08-05T09:49:55;101179.63;;;29.31;34.53
48606;BME280;8482;54.396;18.590;2022-08-05T09:52:34;101191.66;;;29.42;34.45
48606;BME280;8482;54.396;18.590;2022-08-05T09:57:45;101180.13;;;29.51;33.66
48606;BME280;8482;54.396;18.590;2022-08-05T10:00:17;101184.88;;;29.56;33.63
48606;BME280;8482;54.396;18.590;2022-08-05T10:02:49;101181.19;;;29.62;33.45
48606;BME280;8482;54.396;18.590;2022-08-05T10:05:23;101167.41;;;29.69;33.41
48606;BME280;8482;54.396;18.590;2022-08-05T10:07:57;101166.06;;;29.72;33.30
48606;BME280;8482;54.396;18.590;2022-08-05T10:10:36;101172.25;;;29.79;32.98
48606;BME280;8482;54.396;18.590;2022-08-05T10:13:04;101156.53;;;29.86;32.97
48606;BME280;8482;54.396;18.590;2022-08-05T10:15:34;101161.06;;;29.92;32.97
48606;BME280;8482;54.396;18.590;2022-08-05T10:18:17;101163.22;;;30.02;33.45
48606;BME280;8482;54.396;18.590;2022-08-05T10:20:55;101154.63;;;30.10;33.23
48606;BME280;8482;54.396;18.590;2022-08-05T10:23:31;101165.75;;;30.21;32.89
48606;BME280;8482;54.396;18.590;2022-08-05T10:26:04;101154.44;;;30.29;32.86
48606;BME280;8482;54.396;18.590;2022-08-05T10:28:31;101145.84;;;30.37;32.66
48606;BME280;8482;54.396;18.590;2022-08-05T10:30:59;101139.41;;;30.43;32.82
48606;BME280;8482;54.396;18.590;2022-08-05T10:33:28;101135.41;;;30.51;32.80
48606;BME280;8482;54.396;18.590;2022-08-05T10:35:58;101136.13;;;30.58;32.58
48606;BME280;8482;54.396;18.590;2022-08-05T10:38:28;101132.97;;;30.67;32.17
48606;BME280;8482;54.396;18.590;2022-08-05T10:41:19;101136.41;;;30.74;32.26
48606;BME280;8482;54.396;18.590;2022-08-05T10:43:56;101126.19;;;30.86;31.89
48606;BME280;8482;54.396;18.590;2022-08-05T10:46:23;101135.06;;;30.94;31.71
48606;BME280;8482;54.396;18.590;2022-08-05T10:49:06;101126.69;;;31.00;31.05
48606;BME280;8482;54.396;18.590;2022-08-05T10:51:49;101120.53;;;31.10;30.89
48606;BME280;8482;54.396;18.590;2022-08-05T10:54:16;101121.22;;;31.17;30.47
48606;BME280;8482;54.396;18.590;2022-08-05T10:56:53;101128.78;;;31.27;30.47
48606;BME280;8482;54.396;18.590;2022-08-05T10:59:28;101121.22;;;31.34;30.11
48606;BME280;8482;54.396;18.590;2022-08-05T11:02:08;101121.59;;;31.43;30.37
48606;BME280;8482;54.396;18.590;2022-08-05T11:04:47;101112.69;;;31.53;30.23
48606;BME280;8482;54.396;18.590;2022-08-05T11:07:16;101119.13;;;31.64;29.93
48606;BME280;8482;54.396;18.590;2022-08-05T11:09:51;101120.38;;;31.73;29.43
48606;BME280;8482;54.396;18.590;2022-08-05T11:15:25;101114.00;;;31.90;29.36
48606;BME280;8482;54.396;18.590;2022-08-05T11:20:46;101104.88;;;32.06;29.10
48606;BME280;8482;54.396;18.590;2022-08-05T11:23:53;101099.75;;;32.15;28.53
48606;BME280;8482;54.396;18.590;2022-08-05T11:26:22;101093.56;;;32.25;28.62
48606;BME280;8482;54.396;18.590;2022-08-05T11:28:53;101098.91;;;32.37;28.62
48606;BME280;8482;54.396;18.590;2022-08-05T11:31:23;101086.84;;;32.43;28.62
48606;BME280;8482;54.396;18.590;2022-08-05T11:33:57;101095.50;;;32.57;28.52
48606;BME280;8482;54.396;18.590;2022-08-05T11:36:45;101091.75;;;32.68;27.89
48606;BME280;8482;54.396;18.590;2022-08-05T11:39:14;101088.28;;;32.78;27.46
48606;BME280;8482;54.396;18.590;2022-08-05T11:41:49;101086.19;;;32.91;27.53
48606;BME280;8482;54.396;18.590;2022-08-05T11:44:19;101080.72;;;32.96;27.30
48606;BME280;8482;54.396;18.590;2022-08-05T11:46:50;101067.31;;;33.05;27.22
48606;BME280;8482;54.396;18.590;2022-08-05T11:49:21;101080.00;;;33.11;27.56
48606;BME280;8482;54.396;18.590;2022-08-05T11:51:50;101073.72;;;33.15;27.16
48606;BME280;8482;54.396;18.590;2022-08-05T11:54:23;101076.78;;;33.24;27.35
48606;BME280;8482;54.396;18.590;2022-08-05T11:56:52;101076.25;;;33.32;27.28
48606;BME280;8482;54.396;18.590;2022-08-05T11:59:22;101074.97;;;33.40;27.36
48606;BME280;8482;54.396;18.590;2022-08-05T12:02:04;101051.91;;;33.52;27.27
48606;BME280;8482;54.396;18.590;2022-08-05T12:04:44;101068.44;;;33.62;27.12
48606;BME280;8482;54.396;18.590;2022-08-05T12:07:13;101071.78;;;33.69;26.48
48606;BME280;8482;54.396;18.590;2022-08-05T12:10:00;101064.41;;;33.80;26.90
48606;BME280;8482;54.396;18.590;2022-08-05T12:12:27;101060.06;;;33.89;26.85
48606;BME280;8482;54.396;18.590;2022-08-05T12:14:54;101065.00;;;33.98;26.36
48606;BME280;8482;54.396;18.590;2022-08-05T12:17:21;101068.88;;;34.02;26.47
48606;BME280;8482;54.396;18.590;2022-08-05T12:19:50;101061.72;;;34.11;26.57
48606;BME280;8482;54.396;18.590;2022-08-05T12:22:20;101059.28;;;34.20;26.05
48606;BME280;8482;54.396;18.590;2022-08-05T12:24:49;101061.19;;;34.25;26.15
48606;BME280;8482;54.396;18.590;2022-08-05T12:27:34;101059.56;;;34.34;25.66
48606;BME280;8482;54.396;18.590;2022-08-05T12:30:09;101037.81;;;34.37;25.55
48606;BME280;8482;54.396;18.590;2022-08-05T12:32:44;101035.38;;;34.46;25.71
48606;BME280;8482;54.396;18.590;2022-08-05T12:35:12;101036.75;;;34.49;25.85
48606;BME280;8482;54.396;18.590;2022-08-05T12:37:41;101046.66;;;34.60;25.49
48606;BME280;8482;54.396;18.590;2022-08-05T12:40:09;101047.19;;;34.67;25.43
48606;BME280;8482;54.396;18.590;2022-08-05T12:42:35;101034.81;;;34.70;25.32
48606;BME280;8482;54.396;18.590;2022-08-05T12:45:04;101052.41;;;34.84;25.49
48606;BME280;8482;54.396;18.590;2022-08-05T12:47:31;101044.44;;;34.93;25.49
48606;BME280;8482;54.396;18.590;2022-08-05T12:49:58;101054.03;;;35.01;25.31
48606;BME280;8482;54.396;18.590;2022-08-05T12:52:24;101047.44;;;35.12;24.82
48606;BME280;8482;54.396;18.590;2022-08-05T12:54:50;101043.22;;;35.20;24.71
48606;BME280;8482;54.396;18.590;2022-08-05T12:57:17;101044.03;;;35.31;24.80
48606;BME280;8482;54.396;18.590;2022-08-05T12:59:54;101037.13;;;35.39;24.59
48606;BME280;8482;54.396;18.590;2022-08-05T13:02:27;101039.03;;;35.43;24.59
48606;BME280;8482;54.396;18.590;2022-08-05T13:04:53;101038.44;;;35.57;24.40
48606;BME280;8482;54.396;18.590;2022-08-05T13:07:25;101032.91;;;35.62;24.51
48606;BME280;8482;54.396;18.590;2022-08-05T13:09:54;101032.91;;;35.62;24.59
48606;BME280;8482;54.396;18.590;2022-08-05T13:12:23;101048.88;;;35.65;24.29
48606;BME280;8482;54.396;18.590;2022-08-05T13:14:57;101037.00;;;35.70;24.21
48606;BME280;8482;54.396;18.590;2022-08-05T13:17:29;101035.84;;;35.76;24.20
48606;BME280;8482;54.396;18.590;2022-08-05T13:20:14;101030.56;;;35.85;24.24